Steyr, Austria
Current Conditions -  °F | °C
As of 4:20 AM on Tuesday 27 Jan 2015 (Local Time) from LOWL Reporting Station
Light Snow Light Snow  
Wind Chill: -4°   Ceiling: 1700
Heat Index: -1°   Visibility: 3mi
Dew Point: -2°   Wind: 5mph
Humidity: 93%   Direction: 290°WNW
Pressure: 29.97"   Gusts: NA
Location:  48.04°N, 14.41°E
Report Text: LOWL 270320Z 29004KT 5000 -SN FZBR FEW005 BKN017 M01/M02 Q1015 TEMPO BKN012
Loading
Personal Weather Stations






























Interactive Weather Map New forecast layout! Learn more

10-Day Weather Forecast

Advertisements
Track Severe Weather on mobile